Time;durP1;ratioP1;P1;durP2;ratioP2;P2;SDS_P1;SDS_P2;PMS_P1;PMS_P2;Temp;Humidity;BMP_temperature;BMP_pressure;BME280_temperature;BME280_humidity;BME280_pressure;Samples;Min_cycle;Max_cycle;Signal;HPM_P1;HPM_P2
2023/05/07 00:00:37;;;;;;;8.82;2.40;;;16.40;99.90;;;;;;5115927;28;20398;-82
2023/05/07 00:03:03;;;;;;;4.93;2.10;;;16.40;99.90;;;;;;5115490;28;20459;-83
2023/05/07 00:05:28;;;;;;;3.83;2.00;;;16.40;99.90;;;;;;5116570;28;20480;-83
2023/05/07 00:07:54;;;;;;;4.78;2.10;;;16.30;99.90;;;;;;5115148;28;20031;-84
2023/05/07 00:10:20;;;;;;;3.92;2.22;;;16.40;99.90;;;;;;5116308;28;20114;-84
2023/05/07 00:12:45;;;;;;;2.97;2.38;;;16.30;99.90;;;;;;5114671;28;20533;-84
2023/05/07 00:15:11;;;;;;;3.50;2.25;;;16.30;99.90;;;;;;5115286;28;20054;-84
2023/05/07 00:17:37;;;;;;;3.13;2.20;;;16.20;99.90;;;;;;5115757;28;20055;-84
2023/05/07 00:20:04;;;;;;;3.53;2.25;;;16.20;99.90;;;;;;5114847;28;20077;-85
2023/05/07 00:22:30;;;;;;;6.25;3.35;;;16.10;99.90;;;;;;5115887;28;20030;-84
2023/05/07 00:24:56;;;;;;;4.90;2.38;;;16.10;99.90;;;;;;5115943;28;20035;-85
2023/05/07 00:27:24;;;;;;;3.72;2.03;;;16.20;99.90;;;;;;5115460;28;20023;-84
2023/05/07 00:29:50;;;;;;;3.83;2.25;;;16.10;99.90;;;;;;5115462;28;20064;-84
2023/05/07 00:32:15;;;;;;;2.83;1.98;;;16.00;99.90;;;;;;5114924;28;20460;-83
2023/05/07 00:34:42;;;;;;;3.38;2.20;;;16.00;99.90;;;;;;5115473;28;20028;-83
2023/05/07 00:37:08;;;;;;;2.33;1.65;;;16.00;99.90;;;;;;5115348;28;20045;-84
2023/05/07 00:39:34;;;;;;;3.42;2.08;;;15.90;99.90;;;;;;5116452;28;20539;-84
2023/05/07 00:42:00;;;;;;;2.55;1.95;;;16.00;99.90;;;;;;5115089;28;20020;-84
2023/05/07 00:44:26;;;;;;;5.03;2.30;;;15.90;99.90;;;;;;5115667;28;20433;-84
2023/05/07 00:46:53;;;;;;;2.60;1.77;;;16.00;99.90;;;;;;5116260;28;20023;-85
2023/05/07 00:49:20;;;;;;;4.50;2.13;;;15.90;99.90;;;;;;5115363;28;20384;-84
2023/05/07 00:51:46;;;;;;;4.15;2.00;;;15.90;99.90;;;;;;5116268;28;20066;-83
2023/05/07 00:54:13;;;;;;;7.20;1.65;;;15.90;99.90;;;;;;5115884;28;20106;-83
2023/05/07 00:56:39;;;;;;;2.63;1.98;;;15.80;99.90;;;;;;5115291;28;20034;-82
2023/05/07 00:59:06;;;;;;;2.85;1.85;;;15.80;99.90;;;;;;5114330;28;20452;-83
2023/05/07 01:01:32;;;;;;;3.22;1.70;;;15.70;99.90;;;;;;5116055;28;20024;-83
2023/05/07 01:03:57;;;;;;;2.53;1.70;;;15.70;99.90;;;;;;5115671;28;20030;-83
2023/05/07 01:06:26;;;;;;;4.05;2.10;;;15.80;99.90;;;;;;5116526;28;20031;-83
2023/05/07 01:08:52;;;;;;;3.20;1.80;;;15.80;99.90;;;;;;5114938;28;20038;-82
2023/05/07 01:11:20;;;;;;;4.10;2.05;;;15.80;99.90;;;;;;5114505;28;20038;-82
2023/05/07 01:13:47;;;;;;;6.38;2.15;;;15.80;99.90;;;;;;5114647;28;20024;-83
2023/05/07 01:16:12;;;;;;;4.13;2.28;;;15.80;99.90;;;;;;5114068;28;20024;-83
2023/05/07 01:18:38;;;;;;;3.80;2.83;;;15.70;99.90;;;;;;5114290;28;20027;-82
2023/05/07 01:21:07;;;;;;;3.72;2.38;;;15.70;99.90;;;;;;5114272;28;20024;-83
2023/05/07 01:23:34;;;;;;;3.67;1.85;;;15.70;99.90;;;;;;5114054;28;20055;-82
2023/05/07 01:25:59;;;;;;;5.20;2.05;;;15.70;99.90;;;;;;5115205;28;20024;-83
2023/05/07 01:28:25;;;;;;;4.32;1.80;;;15.70;99.90;;;;;;5114660;28;20460;-83
2023/05/07 01:30:55;;;;;;;2.78;1.80;;;15.70;99.90;;;;;;5114547;28;20030;-83
2023/05/07 01:33:22;;;;;;;2.28;1.83;;;15.70;99.90;;;;;;5103597;28;20028;-84
2023/05/07 01:35:52;;;;;;;4.45;2.30;;;15.70;99.90;;;;;;5094929;28;20461;-83
2023/05/07 01:38:18;;;;;;;4.40;1.98;;;15.70;99.90;;;;;;5094013;28;20089;-84
2023/05/07 01:40:44;;;;;;;5.05;2.10;;;15.60;99.90;;;;;;5093916;28;20036;-83
2023/05/07 01:43:10;;;;;;;3.42;1.80;;;15.60;99.90;;;;;;5088412;28;20078;-84
2023/05/07 01:45:37;;;;;;;3.80;2.15;;;15.60;99.90;;;;;;5082759;28;20032;-83
2023/05/07 01:48:04;;;;;;;3.53;2.10;;;15.60;99.90;;;;;;5093235;28;20036;-84
2023/05/07 01:50:31;;;;;;;3.00;1.85;;;15.50;99.90;;;;;;5093644;28;20369;-83
2023/05/07 01:52:57;;;;;;;3.13;2.20;;;15.50;99.90;;;;;;5093525;28;20028;-84
2023/05/07 01:55:23;;;;;;;4.82;1.70;;;15.50;99.90;;;;;;5093649;28;20034;-84
2023/05/07 01:57:49;;;;;;;2.90;1.98;;;15.50;99.90;;;;;;5093734;28;20024;-83
2023/05/07 02:00:15;;;;;;;3.65;1.85;;;15.40;99.90;;;;;;5094062;28;20108;-84
2023/05/07 02:02:40;;;;;;;3.40;2.08;;;15.40;99.90;;;;;;5094167;28;20057;-83
2023/05/07 02:05:06;;;;;;;4.55;2.28;;;15.40;99.90;;;;;;5094208;28;20028;-84
2023/05/07 02:07:32;;;;;;;4.18;2.13;;;15.40;99.90;;;;;;5093711;28;20027;-84
2023/05/07 02:09:57;;;;;;;2.35;1.85;;;15.30;99.90;;;;;;5093458;28;20036;-85
2023/05/07 02:12:23;;;;;;;2.53;1.98;;;15.30;99.90;;;;;;5093203;28;20372;-84
2023/05/07 02:14:49;;;;;;;2.45;1.60;;;15.30;99.90;;;;;;5094277;28;20028;-83
2023/05/07 02:17:15;;;;;;;2.97;1.88;;;15.30;99.90;;;;;;5092640;28;20042;-83
2023/05/07 02:19:40;;;;;;;3.33;1.83;;;15.30;99.90;;;;;;5093292;28;20036;-83
2023/05/07 02:22:07;;;;;;;2.70;1.92;;;15.20;99.90;;;;;;5092938;28;20031;-84
2023/05/07 02:24:32;;;;;;;4.18;2.25;;;15.20;99.90;;;;;;5094044;28;20024;-82
2023/05/07 02:26:58;;;;;;;3.95;2.80;;;15.10;99.90;;;;;;5093141;28;20145;-83
2023/05/07 02:29:24;;;;;;;4.18;2.00;;;15.10;99.90;;;;;;5092855;28;20119;-82
2023/05/07 02:31:50;;;;;;;2.30;1.83;;;15.20;99.90;;;;;;5093205;28;20020;-82
2023/05/07 02:34:17;;;;;;;3.15;1.77;;;15.10;99.90;;;;;;5092451;28;20028;-83
2023/05/07 02:36:43;;;;;;;3.47;2.28;;;15.00;99.90;;;;;;5092879;28;20028;-81
2023/05/07 02:39:08;;;;;;;4.50;1.92;;;15.00;99.90;;;;;;5092387;28;20044;-83
2023/05/07 02:41:34;;;;;;;3.03;2.10;;;15.00;99.90;;;;;;5093956;28;20024;-82
2023/05/07 02:44:00;;;;;;;4.07;2.15;;;15.00;99.90;;;;;;5092970;28;20433;-85
2023/05/07 02:46:25;;;;;;;2.60;2.00;;;14.90;99.90;;;;;;5092837;28;20063;-82
2023/05/07 02:48:51;;;;;;;2.15;1.83;;;14.90;99.90;;;;;;5094261;28;20024;-83
2023/05/07 02:51:21;;;;;;;3.70;2.10;;;14.90;99.90;;;;;;5095237;28;20070;-82
2023/05/07 02:53:47;;;;;;;3.67;1.88;;;14.90;99.90;;;;;;5094805;28;20020;-82
2023/05/07 02:56:12;;;;;;;2.70;1.85;;;14.80;99.90;;;;;;5092643;28;20088;-82
2023/05/07 02:58:44;;;;;;;2.83;1.80;;;14.80;99.90;;;;;;5092752;28;20028;-82
2023/05/07 03:01:10;;;;;;;2.60;1.90;;;14.80;99.90;;;;;;5092253;28;20472;-82
2023/05/07 03:03:36;;;;;;;3.78;2.28;;;14.80;99.90;;;;;;5092851;28;20030;-82
2023/05/07 03:06:02;;;;;;;3.30;2.20;;;14.80;99.90;;;;;;5094113;28;20140;-82
2023/05/07 03:08:27;;;;;;;3.20;2.00;;;14.80;99.90;;;;;;5092728;28;20032;-81
2023/05/07 03:10:53;;;;;;;4.13;1.80;;;14.70;99.90;;;;;;5093041;28;20039;-81
2023/05/07 03:13:19;;;;;;;4.43;2.20;;;14.80;99.90;;;;;;5092739;28;20024;-81
2023/05/07 03:15:45;;;;;;;2.90;2.03;;;14.70;99.90;;;;;;5093072;28;20029;-83
2023/05/07 03:18:10;;;;;;;4.53;2.08;;;14.70;99.90;;;;;;5092421;28;20024;-83
2023/05/07 03:20:36;;;;;;;3.88;2.55;;;14.70;99.90;;;;;;5092699;28;20032;-83
2023/05/07 03:23:02;;;;;;;2.70;1.92;;;14.60;99.90;;;;;;5092636;28;20452;-84
2023/05/07 03:25:29;;;;;;;3.63;2.08;;;14.70;99.90;;;;;;5092294;28;20421;-82
2023/05/07 03:27:55;;;;;;;7.18;2.15;;;14.70;99.90;;;;;;5092430;28;20024;-82
2023/05/07 03:30:21;;;;;;;3.38;2.17;;;14.70;99.90;;;;;;5091978;28;20786;-82
2023/05/07 03:32:47;;;;;;;5.28;2.15;;;14.80;99.90;;;;;;5092625;28;20062;-81
2023/05/07 03:35:12;;;;;;;5.10;2.17;;;14.70;99.90;;;;;;5092101;28;20522;-82
2023/05/07 03:37:39;;;;;;;3.85;2.22;;;14.60;99.90;;;;;;5092554;28;20090;-82
2023/05/07 03:40:05;;;;;;;4.53;2.30;;;14.60;99.90;;;;;;5092459;28;20104;-82
2023/05/07 03:42:31;;;;;;;3.83;1.95;;;14.60;99.90;;;;;;5093495;28;20024;-81
2023/05/07 03:44:56;;;;;;;3.80;2.03;;;14.50;99.90;;;;;;5093393;28;20031;-81
2023/05/07 03:47:22;;;;;;;2.53;1.75;;;14.50;99.90;;;;;;5093966;28;20148;-80
2023/05/07 03:49:49;;;;;;;2.92;2.00;;;14.60;99.90;;;;;;5095850;28;20039;-82
2023/05/07 03:52:15;;;;;;;3.40;2.33;;;14.50;99.90;;;;;;5096819;28;20020;-82
2023/05/07 03:54:40;;;;;;;5.13;2.63;;;14.60;99.90;;;;;;5097341;28;20031;-82
2023/05/07 03:57:06;;;;;;;3.95;2.00;;;14.50;99.90;;;;;;5095268;28;20032;-84
2023/05/07 03:59:31;;;;;;;3.53;2.10;;;14.50;99.90;;;;;;5096629;28;20532;-82
2023/05/07 04:01:57;;;;;;;4.35;2.33;;;14.50;99.90;;;;;;5095643;28;20025;-82
2023/05/07 04:04:23;;;;;;;3.88;1.98;;;14.50;99.90;;;;;;5095205;28;20111;-83
2023/05/07 04:06:49;;;;;;;5.13;2.22;;;14.50;99.90;;;;;;5096821;28;20016;-83
2023/05/07 04:09:14;;;;;;;4.28;2.30;;;14.50;99.90;;;;;;5095977;28;20072;-83
2023/05/07 04:11:40;;;;;;;2.80;2.25;;;14.50;99.90;;;;;;5096961;28;20066;-83
2023/05/07 04:14:06;;;;;;;2.85;2.17;;;14.40;99.90;;;;;;5095536;28;20380;-85
2023/05/07 04:16:31;;;;;;;2.75;1.98;;;14.40;99.90;;;;;;5095358;28;20027;-83
2023/05/07 04:18:57;;;;;;;4.85;2.00;;;14.50;99.90;;;;;;5095561;28;20119;-83
2023/05/07 04:21:22;;;;;;;5.43;2.30;;;14.40;99.90;;;;;;5094977;28;20035;-83
2023/05/07 04:23:49;;;;;;;3.17;1.80;;;14.50;99.90;;;;;;5095477;28;20027;-83
2023/05/07 04:26:15;;;;;;;3.17;2.17;;;14.40;99.90;;;;;;5095901;28;20076;-83
2023/05/07 04:28:41;;;;;;;4.38;2.00;;;14.40;99.90;;;;;;5095418;28;20025;-82
2023/05/07 04:31:07;;;;;;;2.95;2.10;;;14.40;99.90;;;;;;5094900;28;20074;-84
2023/05/07 04:33:33;;;;;;;6.18;2.35;;;14.40;99.90;;;;;;5096303;28;20028;-82
2023/05/07 04:36:03;;;;;;;3.67;1.98;;;14.50;99.90;;;;;;5095292;28;20031;-82
2023/05/07 04:38:31;;;;;;;3.88;2.15;;;14.50;99.90;;;;;;5094052;28;20052;-83
2023/05/07 04:40:57;;;;;;;3.05;1.73;;;14.50;99.90;;;;;;5095353;28;20040;-82
2023/05/07 04:43:23;;;;;;;3.55;2.40;;;14.50;99.90;;;;;;5095732;28;20107;-82
2023/05/07 04:45:51;;;;;;;3.38;1.80;;;14.40;99.90;;;;;;5095121;28;20063;-83
2023/05/07 04:48:18;;;;;;;3.00;2.17;;;14.40;99.90;;;;;;5094535;28;20549;-83
2023/05/07 04:50:46;;;;;;;4.93;2.25;;;14.50;99.90;;;;;;5088310;28;20032;-83
2023/05/07 04:53:12;;;;;;;3.38;1.88;;;14.50;99.90;;;;;;5087812;28;20028;-83
2023/05/07 04:55:37;;;;;;;4.38;2.40;;;14.50;99.90;;;;;;5093417;28;20031;-82
2023/05/07 04:58:04;;;;;;;3.67;2.05;;;14.50;99.90;;;;;;5095208;28;20024;-83
2023/05/07 05:00:30;;;;;;;2.38;2.00;;;14.50;99.90;;;;;;5095100;28;20035;-83
2023/05/07 05:02:55;;;;;;;3.50;2.10;;;14.50;99.90;;;;;;5095571;28;20028;-82
2023/05/07 05:05:21;;;;;;;3.70;2.20;;;14.50;99.90;;;;;;5094056;28;20530;-82
2023/05/07 05:07:47;;;;;;;2.28;1.88;;;14.60;99.90;;;;;;5094192;28;20047;-82
2023/05/07 05:10:12;;;;;;;3.30;2.10;;;14.60;99.90;;;;;;5093814;28;20111;-83
2023/05/07 05:12:38;;;;;;;2.90;2.28;;;14.60;99.90;;;;;;5094294;28;20023;-84
2023/05/07 05:15:05;;;;;;;4.07;2.38;;;14.60;99.90;;;;;;5094604;28;20457;-81
2023/05/07 05:17:30;;;;;;;3.33;1.92;;;14.60;99.90;;;;;;5094035;28;20047;-81
2023/05/07 05:19:56;;;;;;;4.53;2.28;;;14.60;99.90;;;;;;5095509;28;20451;-81
2023/05/07 05:22:22;;;;;;;3.22;2.00;;;14.60;99.90;;;;;;5093857;28;20384;-83
2023/05/07 05:24:47;;;;;;;3.00;2.03;;;14.70;99.90;;;;;;5095050;28;20063;-83
2023/05/07 05:27:13;;;;;;;3.53;2.08;;;14.70;99.90;;;;;;5093921;28;20429;-83
2023/05/07 05:29:38;;;;;;;4.00;1.80;;;14.80;99.90;;;;;;5093935;28;20019;-82
2023/05/07 05:32:04;;;;;;;4.18;2.17;;;14.80;99.90;;;;;;5093917;28;20114;-82
2023/05/07 05:34:30;;;;;;;3.20;2.17;;;14.80;99.90;;;;;;5094462;28;20024;-82
2023/05/07 05:36:55;;;;;;;2.97;1.85;;;14.90;99.90;;;;;;5094091;28;20522;-82
2023/05/07 05:39:23;;;;;;;2.25;1.70;;;14.90;99.90;;;;;;5093014;28;20048;-82
2023/05/07 05:41:48;;;;;;;2.47;1.85;;;15.00;99.90;;;;;;5094960;28;20047;-82
2023/05/07 05:44:14;;;;;;;2.22;1.75;;;15.00;99.90;;;;;;5093012;28;20113;-81
2023/05/07 05:46:39;;;;;;;2.88;2.03;;;15.10;99.90;;;;;;5094781;28;20465;-83
2023/05/07 05:49:05;;;;;;;3.88;2.08;;;15.10;99.90;;;;;;5093442;28;20032;-84
2023/05/07 05:51:31;;;;;;;2.72;2.13;;;15.20;99.90;;;;;;5094053;28;20119;-83
2023/05/07 05:53:56;;;;;;;2.80;2.10;;;15.20;99.90;;;;;;5091395;28;20063;-82
2023/05/07 05:56:22;;;;;;;3.28;2.10;;;15.30;99.90;;;;;;5093330;28;20457;-83
2023/05/07 05:58:47;;;;;;;4.05;1.80;;;15.30;99.90;;;;;;5093376;28;20031;-83
2023/05/07 06:01:13;;;;;;;3.00;2.10;;;15.40;99.90;;;;;;5093137;28;20039;-83
2023/05/07 06:03:38;;;;;;;2.38;2.00;;;15.50;99.90;;;;;;5094389;28;20078;-82
2023/05/07 06:06:04;;;;;;;2.33;1.90;;;15.50;99.90;;;;;;5093330;28;20020;-82
2023/05/07 06:08:30;;;;;;;3.40;1.90;;;15.50;99.90;;;;;;5093592;28;20028;-83
2023/05/07 06:10:56;;;;;;;2.67;2.30;;;15.70;99.90;;;;;;5092819;28;20034;-82
2023/05/07 06:13:22;;;;;;;2.72;1.70;;;15.80;99.90;;;;;;5093287;28;20024;-81
2023/05/07 06:15:48;;;;;;;2.53;1.75;;;15.80;99.90;;;;;;5092855;28;20023;-81
2023/05/07 06:18:14;;;;;;;3.95;1.95;;;15.90;99.90;;;;;;5093768;28;20111;-83
2023/05/07 06:20:39;;;;;;;3.42;1.95;;;15.90;99.90;;;;;;5112783;28;20063;-81
2023/05/07 06:23:05;;;;;;;2.28;1.77;;;16.00;99.90;;;;;;5097812;28;20031;-82
2023/05/07 06:25:30;;;;;;;1.92;1.70;;;16.10;99.90;;;;;;5093550;28;20514;-83
2023/05/07 06:27:56;;;;;;;2.20;1.58;;;16.20;99.90;;;;;;5092845;28;20020;-83
2023/05/07 06:30:22;;;;;;;2.50;1.60;;;16.20;99.90;;;;;;5091943;28;20024;-84
2023/05/07 06:32:47;;;;;;;2.47;1.67;;;16.30;99.90;;;;;;5092464;28;20032;-83
2023/05/07 06:35:13;;;;;;;3.33;1.45;;;16.30;99.90;;;;;;5092588;28;20024;-86
2023/05/07 06:37:39;;;;;;;3.72;1.70;;;16.40;99.90;;;;;;5093955;28;20028;-82
2023/05/07 06:40:06;;;;;;;2.92;1.60;;;16.40;99.90;;;;;;5093752;28;20123;-82
2023/05/07 06:42:32;;;;;;;2.88;1.70;;;16.40;99.90;;;;;;5092375;28;20098;-84
2023/05/07 06:44:58;;;;;;;1.85;1.50;;;16.40;99.90;;;;;;5093908;28;20051;-84
2023/05/07 06:47:23;;;;;;;2.28;1.70;;;16.50;99.90;;;;;;5092441;28;20036;-84
2023/05/07 06:49:49;;;;;;;3.45;1.70;;;16.60;99.90;;;;;;5095700;28;20077;-82
2023/05/07 06:52:15;;;;;;;3.17;1.58;;;16.60;99.90;;;;;;5096175;28;20031;-85
2023/05/07 06:54:40;;;;;;;2.75;1.60;;;16.60;99.90;;;;;;5094793;28;20585;-81
2023/05/07 06:57:06;;;;;;;2.50;1.30;;;16.60;99.90;;;;;;5097945;28;20024;-82
2023/05/07 06:59:32;;;;;;;3.05;1.52;;;16.60;99.90;;;;;;5106408;28;20036;-82
2023/05/07 07:02:00;;;;;;;2.65;1.60;;;16.70;99.90;;;;;;5107022;28;20416;-81
2023/05/07 07:04:25;;;;;;;2.60;1.40;;;16.70;99.90;;;;;;5094165;28;20461;-83
2023/05/07 07:06:54;;;;;;;3.10;1.75;;;16.80;99.90;;;;;;5092826;28;20028;-83
2023/05/07 07:09:20;;;;;;;2.92;1.67;;;16.80;99.90;;;;;;5093100;28;20115;-83
2023/05/07 07:11:46;;;;;;;3.55;1.80;;;16.90;99.90;;;;;;5093549;28;20048;-85
2023/05/07 07:14:11;;;;;;;2.05;1.80;;;16.90;99.90;;;;;;5093713;28;20020;-83
2023/05/07 07:16:37;;;;;;;1.88;1.20;;;16.90;99.90;;;;;;5088494;28;20032;-91
2023/05/07 07:19:02;;;;;;;2.30;1.70;;;16.90;99.90;;;;;;5092334;28;20127;-86
2023/05/07 07:21:28;;;;;;;4.63;1.38;;;17.00;99.90;;;;;;5099956;28;20471;-88
2023/05/07 07:23:53;;;;;;;2.03;1.55;;;17.00;99.90;;;;;;5096100;28;20024;-85
2023/05/07 07:26:19;;;;;;;1.52;1.30;;;17.00;99.90;;;;;;5096203;28;20027;-86
2023/05/07 07:28:46;;;;;;;2.20;1.45;;;17.00;99.90;;;;;;5095625;28;20024;-81
2023/05/07 07:31:12;;;;;;;2.72;1.30;;;17.10;99.90;;;;;;5095311;28;20023;-79
2023/05/07 07:33:37;;;;;;;1.58;1.20;;;17.10;99.90;;;;;;5094885;28;20050;-83
2023/05/07 07:36:03;;;;;;;6.88;2.42;;;17.10;99.90;;;;;;5095710;28;20452;-80
2023/05/07 07:38:29;;;;;;;5.68;1.77;;;17.20;99.90;;;;;;5094707;28;20381;-84
2023/05/07 07:40:54;;;;;;;2.95;1.60;;;17.20;99.90;;;;;;5097121;28;20032;-84
2023/05/07 07:43:20;;;;;;;1.63;1.40;;;17.30;99.90;;;;;;5095717;28;20020;-86
2023/05/07 07:45:45;;;;;;;2.55;1.60;;;17.30;99.90;;;;;;5095821;28;20062;-83
2023/05/07 07:48:11;;;;;;;3.65;2.00;;;17.30;99.90;;;;;;5095853;28;20023;-83
2023/05/07 07:50:37;;;;;;;4.65;2.00;;;17.40;99.90;;;;;;5096535;28;20032;-84
2023/05/07 07:53:03;;;;;;;3.88;1.95;;;17.50;99.90;;;;;;5095458;28;20123;-84
2023/05/07 07:55:28;;;;;;;2.30;1.55;;;17.60;99.90;;;;;;5095334;28;20157;-83
2023/05/07 07:57:54;;;;;;;5.10;1.70;;;17.70;99.90;;;;;;5094307;28;20100;-84
2023/05/07 08:00:20;;;;;;;1.83;1.42;;;17.80;99.90;;;;;;5093606;28;20039;-82
2023/05/07 08:02:45;;;;;;;3.92;1.50;;;17.80;99.90;;;;;;5096377;28;20028;-81
2023/05/07 08:05:11;;;;;;;4.28;1.58;;;18.00;99.90;;;;;;5095332;28;20024;-83
2023/05/07 08:07:36;;;;;;;1.55;1.42;;;18.00;99.90;;;;;;5089921;28;20024;-89
2023/05/07 08:10:02;;;;;;;1.95;1.60;;;18.10;99.90;;;;;;5094693;28;20472;-83
2023/05/07 08:12:28;;;;;;;3.10;1.75;;;18.20;99.90;;;;;;5092331;28;20024;-86
2023/05/07 08:14:54;;;;;;;2.55;1.60;;;18.20;99.90;;;;;;5086092;28;20587;-82
2023/05/07 08:17:22;;;;;;;4.50;1.67;;;18.20;99.90;;;;;;5104460;28;20019;-84
2023/05/07 08:19:47;;;;;;;3.60;1.60;;;18.20;99.90;;;;;;5106823;28;20036;-83
2023/05/07 08:22:13;;;;;;;4.35;1.55;;;18.20;99.90;;;;;;5090585;28;20024;-90
2023/05/07 08:24:39;;;;;;;2.15;1.90;;;18.30;99.90;;;;;;5095231;28;20465;-89
2023/05/07 08:27:05;;;;;;;3.03;1.95;;;18.30;99.90;;;;;;5095060;28;20020;-88
2023/05/07 08:29:31;;;;;;;3.13;1.95;;;18.20;99.90;;;;;;5094208;28;20519;-94
2023/05/07 08:31:56;;;;;;;5.70;1.73;;;18.20;99.90;;;;;;5094491;28;20132;-93
2023/05/07 08:34:22;;;;;;;3.78;1.90;;;18.20;99.90;;;;;;5094570;28;20061;-94
2023/05/07 08:36:48;;;;;;;2.38;2.00;;;18.20;99.90;;;;;;5094074;28;20024;-92
2023/05/07 08:39:17;;;;;;;4.47;1.80;;;18.20;99.90;;;;;;5094418;28;20066;-91
2023/05/07 08:41:46;;;;;;;4.25;1.60;;;18.20;99.90;;;;;;5094808;28;20475;-91
2023/05/07 08:44:13;;;;;;;4.45;1.77;;;18.20;99.90;;;;;;5084742;28;20107;-94
2023/05/07 08:46:41;;;;;;;1.90;1.70;;;18.20;99.90;;;;;;5094952;28;20012;-91
2023/05/07 08:49:08;;;;;;;2.95;2.03;;;18.30;99.90;;;;;;5095879;28;20085;-95
2023/05/07 08:51:35;;;;;;;3.08;1.90;;;18.40;99.90;;;;;;5097214;28;20069;-92
2023/05/07 08:54:01;;;;;;;3.47;2.00;;;18.40;99.90;;;;;;5094050;28;20056;-94
2023/05/07 08:56:27;;;;;;;3.88;2.17;;;18.50;99.90;;;;;;5093230;28;20164;-85
2023/05/07 08:58:56;;;;;;;4.22;2.03;;;18.50;99.90;;;;;;5095384;28;20474;-85
2023/05/07 09:01:22;;;;;;;3.10;2.00;;;18.60;99.90;;;;;;5093539;28;20028;-83
2023/05/07 09:03:47;;;;;;;2.10;1.80;;;18.60;99.90;;;;;;5094109;28;20050;-85
2023/05/07 09:06:13;;;;;;;3.00;2.10;;;18.60;99.90;;;;;;5094236;28;20126;-84
2023/05/07 09:08:39;;;;;;;2.58;2.00;;;18.70;99.90;;;;;;5094823;28;20028;-86
2023/05/07 09:11:05;;;;;;;2.17;1.95;;;18.70;99.90;;;;;;5094329;28;20039;-83
2023/05/07 09:13:30;;;;;;;3.05;1.63;;;18.80;99.90;;;;;;5093709;28;20027;-85
2023/05/07 09:15:56;;;;;;;2.88;1.90;;;18.90;99.90;;;;;;5092665;28;20032;-85
2023/05/07 09:18:24;;;;;;;2.45;1.85;;;19.00;99.90;;;;;;5078433;28;20077;-86
2023/05/07 09:20:50;;;;;;;3.72;1.80;;;19.00;99.90;;;;;;5096181;28;20092;-83
2023/05/07 09:23:16;;;;;;;3.30;1.70;;;19.10;99.90;;;;;;5093267;28;20016;-84
2023/05/07 09:25:45;;;;;;;4.32;2.50;;;19.10;99.90;;;;;;5092728;28;20438;-83
2023/05/07 09:28:11;;;;;;;2.80;1.98;;;19.10;99.90;;;;;;5093046;28;20036;-86
2023/05/07 09:30:36;;;;;;;5.07;1.70;;;19.20;99.90;;;;;;5092420;28;20024;-86
2023/05/07 09:33:03;;;;;;;3.67;1.90;;;19.20;99.90;;;;;;5093020;28;20018;-86
2023/05/07 09:35:30;;;;;;;2.22;1.70;;;19.20;99.90;;;;;;5092753;28;20115;-85
2023/05/07 09:37:57;;;;;;;6.28;1.98;;;19.30;99.90;;;;;;5093144;28;20028;-87
2023/05/07 09:40:25;;;;;;;3.60;1.83;;;19.40;99.90;;;;;;5092548;28;20200;-86
2023/05/07 09:42:51;;;;;;;3.90;1.95;;;19.40;99.90;;;;;;5094313;28;20043;-85
2023/05/07 09:45:31;;;;;;;2.67;1.50;;;19.40;99.90;;;;;;5085674;28;20024;-87
2023/05/07 09:47:58;;;;;;;3.20;2.00;;;19.40;99.90;;;;;;5121364;27;20031;-86
2023/05/07 09:50:32;;;;;;;2.22;1.70;;;19.40;99.90;;;;;;5100272;28;20108;-85
2023/05/07 09:52:58;;;;;;;2.90;1.95;;;19.40;99.90;;;;;;5093239;28;20062;-89
2023/05/07 09:55:24;;;;;;;4.10;2.10;;;19.40;99.90;;;;;;5092630;28;20448;-88
2023/05/07 09:57:52;;;;;;;3.08;1.77;;;19.40;99.90;;;;;;5095088;28;20149;-96
2023/05/07 10:00:19;;;;;;;2.17;1.90;;;19.40;99.90;;;;;;5094291;28;20104;-96
2023/05/07 10:02:51;;;;;;;4.28;2.03;;;19.40;99.90;;;;;;5093570;28;20031;-95
2023/05/07 10:05:18;;;;;;;3.55;2.08;;;19.50;99.90;;;;;;5093665;28;20038;-94
2023/05/07 10:07:44;;;;;;;5.68;1.90;;;19.60;99.90;;;;;;5093369;28;20028;-93
2023/05/07 10:10:10;;;;;;;3.33;2.00;;;19.70;99.90;;;;;;5094807;28;20499;-96
2023/05/07 10:12:40;;;;;;;2.10;1.90;;;19.70;99.90;;;;;;5094632;28;20032;-95
2023/05/07 10:15:10;;;;;;;2.17;1.83;;;19.80;99.90;;;;;;5094354;28;20028;-92
2023/05/07 10:17:36;;;;;;;2.38;1.65;;;19.80;99.90;;;;;;5092339;28;20551;-90
2023/05/07 10:20:02;;;;;;;3.47;1.90;;;19.80;99.90;;;;;;5101717;28;20031;-87
2023/05/07 10:22:32;;;;;;;4.15;1.80;;;19.80;99.90;;;;;;5093789;28;20032;-87
2023/05/07 10:25:02;;;;;;;2.80;1.90;;;19.90;99.90;;;;;;5099098;28;20030;-88
2023/05/07 10:27:28;;;;;;;3.88;2.10;;;19.90;99.90;;;;;;5099067;28;20024;-89
2023/05/07 10:30:10;;;;;;;1.90;1.73;;;20.00;99.90;;;;;;5094395;28;20059;-88
2023/05/07 10:32:43;;;;;;;6.63;1.85;;;20.00;99.90;;;;;;5092675;28;20063;-88
2023/05/07 10:35:20;;;;;;;2.72;1.70;;;20.00;99.90;;;;;;5093129;28;20111;-85
2023/05/07 10:37:46;;;;;;;3.13;1.92;;;20.00;99.90;;;;;;5092635;28;20024;-86
2023/05/07 10:40:13;;;;;;;2.90;2.17;;;20.10;99.90;;;;;;5094191;28;20052;-86
2023/05/07 10:42:38;;;;;;;3.50;1.80;;;20.10;99.90;;;;;;5092741;28;20069;-86
2023/05/07 10:45:16;;;;;;;3.40;2.20;;;20.20;99.90;;;;;;5093174;28;20118;-86
2023/05/07 10:48:07;;;;;;;2.78;1.88;;;20.30;99.90;;;;;;5092827;28;20453;-85
2023/05/07 10:50:33;;;;;;;1.77;1.63;;;20.30;99.90;;;;;;5094135;28;20032;-87
2023/05/07 10:53:17;;;;;;;3.22;1.88;;;20.40;99.90;;;;;;5094763;28;20028;-87
2023/05/07 10:55:44;;;;;;;2.25;2.05;;;20.50;99.90;;;;;;5099517;28;20027;-83
2023/05/07 10:58:30;;;;;;;4.03;1.90;;;20.60;99.90;;;;;;5100482;28;20030;-84
2023/05/07 11:01:00;;;;;;;3.22;2.10;;;20.60;99.90;;;;;;5096184;28;20048;-84
2023/05/07 11:03:27;;;;;;;3.28;1.85;;;20.70;99.90;;;;;;5097309;28;20169;-85
2023/05/07 11:06:13;;;;;;;1.92;1.73;;;20.90;99.90;;;;;;5097213;28;20123;-84
2023/05/07 11:08:58;;;;;;;4.57;2.35;;;21.00;99.90;;;;;;5096412;28;20036;-84
2023/05/07 11:11:47;;;;;;;7.97;5.65;;;21.10;99.90;;;;;;5097661;28;20047;-87
2023/05/07 11:14:43;;;;;;;5.82;2.95;;;21.10;99.90;;;;;;5096660;28;20028;-87
2023/05/07 11:17:09;;;;;;;4.18;1.88;;;21.10;99.90;;;;;;5107103;28;20507;-83
2023/05/07 11:19:55;;;;;;;4.03;1.98;;;21.40;99.90;;;;;;5101447;28;20067;-84
2023/05/07 11:22:33;;;;;;;3.42;1.98;;;21.70;99.90;;;;;;5096049;28;20051;-88
2023/05/07 11:25:06;;;;;;;3.10;2.00;;;21.90;99.90;;;;;;5097404;28;20024;-88
2023/05/07 11:27:32;;;;;;;3.20;1.92;;;22.10;99.90;;;;;;5096963;28;20031;-86
2023/05/07 11:29:58;;;;;;;4.50;1.67;;;22.20;99.90;;;;;;5096445;28;20028;-86
2023/05/07 11:32:31;;;;;;;2.08;1.88;;;22.30;99.90;;;;;;5095711;28;20058;-88
2023/05/07 11:35:00;;;;;;;3.38;2.05;;;22.40;99.90;;;;;;5095840;28;20054;-84
2023/05/07 11:37:28;;;;;;;4.07;1.98;;;22.40;99.90;;;;;;5095268;28;20039;-87
2023/05/07 11:40:08;;;;;;;3.40;1.60;;;22.70;99.90;;;;;;5096698;28;20400;-86
2023/05/07 11:42:37;;;;;;;4.93;1.80;;;22.80;99.90;;;;;;5081187;28;20024;-84
2023/05/07 11:45:03;;;;;;;2.45;1.60;;;22.90;99.90;;;;;;5096829;28;20016;-84
2023/05/07 11:47:32;;;;;;;3.47;1.75;;;23.10;99.90;;;;;;5095428;28;20039;-87
2023/05/07 11:50:07;;;;;;;4.38;1.80;;;23.10;99.90;;;;;;5095884;28;20028;-87
2023/05/07 11:52:33;;;;;;;2.25;1.67;;;23.20;99.90;;;;;;5095404;28;20483;-86
2023/05/07 11:54:59;;;;;;;4.53;1.52;;;23.30;99.90;;;;;;5095815;28;20024;-86
2023/05/07 11:57:26;;;;;;;2.95;1.80;;;23.30;99.90;;;;;;5095751;28;20032;-85
2023/05/07 12:00:01;;;;;;;3.10;1.77;;;23.30;99.90;;;;;;5095750;28;20032;-84
2023/05/07 12:02:28;;;;;;;2.40;1.65;;;23.30;99.90;;;;;;5096466;28;20035;-86
2023/05/07 12:04:54;;;;;;;3.75;1.70;;;23.30;99.90;;;;;;5095716;28;20031;-87
2023/05/07 12:07:20;;;;;;;3.67;2.08;;;23.40;99.60;;;;;;5095041;28;20028;-86
2023/05/07 12:09:47;;;;;;;2.17;1.70;;;23.50;98.50;;;;;;5095577;28;20028;-88
2023/05/07 12:12:15;;;;;;;3.20;1.83;;;23.50;98.50;;;;;;5096071;28;20028;-86
2023/05/07 12:14:45;;;;;;;2.70;1.90;;;23.60;98.30;;;;;;5095108;28;20028;-86
2023/05/07 12:17:13;;;;;;;2.70;1.70;;;23.70;98.20;;;;;;5095366;28;20031;-82
2023/05/07 12:19:41;;;;;;;2.45;1.80;;;23.90;97.40;;;;;;5094720;28;20281;-82
2023/05/07 12:22:10;;;;;;;2.65;1.90;;;24.10;97.10;;;;;;5096352;28;20024;-85
2023/05/07 12:24:50;;;;;;;2.95;1.90;;;24.20;96.90;;;;;;5096129;28;20480;-87
2023/05/07 12:27:16;;;;;;;2.83;1.85;;;24.30;96.40;;;;;;5096680;28;20142;-85
2023/05/07 12:29:46;;;;;;;2.45;1.70;;;24.40;95.80;;;;;;5094824;28;20028;-85
2023/05/07 12:32:17;;;;;;;3.70;1.98;;;24.50;95.70;;;;;;5094532;28;20093;-85
2023/05/07 12:34:43;;;;;;;4.63;1.75;;;24.50;95.50;;;;;;5093555;28;20035;-85
2023/05/07 12:37:09;;;;;;;2.53;1.38;;;24.50;95.00;;;;;;5094761;28;20479;-85
2023/05/07 12:39:35;;;;;;;2.20;1.58;;;24.60;95.20;;;;;;5093635;28;20056;-85
2023/05/07 12:42:01;;;;;;;2.35;1.65;;;24.60;95.00;;;;;;5094857;28;20430;-87
2023/05/07 12:44:34;;;;;;;5.20;1.40;;;24.70;94.10;;;;;;5094985;28;20031;-86
2023/05/07 12:47:03;;;;;;;2.58;1.85;;;24.70;93.80;;;;;;5095291;28;20027;-91